Time;durP1;ratioP1;P1;durP2;ratioP2;P2;SDS_P1;SDS_P2;PMS_P1;PMS_P2;Temp;Humidity;BMP_temperature;BMP_pressure;BME280_temperature;BME280_humidity;BME280_pressure;Samples;Min_cycle;Max_cycle;Signal;HPM_P1;HPM_P2
2022/01/28 00:02:14;;;;;;;41.77;25.32;;;23.30;78.00;;;;;;1925031;73;21104;-87
2022/01/28 00:04:34;;;;;;;40.28;28.12;;;23.30;77.40;;;;;;1933386;74;21170;-87
2022/01/28 00:07:05;;;;;;;45.52;29.92;;;23.40;78.30;;;;;;1942442;73;21160;-87
2022/01/28 00:09:35;;;;;;;50.85;29.12;;;23.30;79.30;;;;;;1932403;73;21054;-86
2022/01/28 00:12:08;;;;;;;40.85;28.05;;;23.30;80.00;;;;;;1935467;73;21632;-87
2022/01/28 00:14:55;;;;;;;46.35;29.00;;;23.20;79.70;;;;;;1931916;74;21100;-87
2022/01/28 00:40:08;;;;;;;52.00;36.15;;;23.10;80.80;;;;;;1928345;74;21163;-88
2022/01/28 00:42:39;;;;;;;67.70;41.08;;;23.10;81.90;;;;;;1897932;75;21068;-87
2022/01/28 00:45:10;;;;;;;59.18;39.80;;;23.10;82.00;;;;;;1900608;75;21274;-87
2022/01/28 00:47:41;;;;;;;56.77;40.58;;;23.10;82.20;;;;;;1896382;75;21611;-87
2022/01/28 00:50:12;;;;;;;55.75;39.38;;;23.10;82.50;;;;;;1841204;77;21332;-87
2022/01/28 00:52:48;;;;;;;60.08;38.95;;;23.10;82.60;;;;;;1937151;74;21138;-87
2022/01/28 00:55:16;;;;;;;63.15;40.48;;;23.10;82.40;;;;;;1928632;74;21201;-87
2022/01/28 00:57:47;;;;;;;42.88;30.85;;;23.20;82.70;;;;;;1933868;74;21144;-87
2022/01/28 01:00:18;;;;;;;40.17;24.82;;;23.20;81.60;;;;;;1936415;74;21152;-86
2022/01/28 01:02:49;;;;;;;25.95;18.02;;;23.30;79.20;;;;;;1933655;73;21249;-87
2022/01/28 01:05:22;;;;;;;30.92;19.85;;;23.40;78.60;;;;;;1932665;74;21053;-87
2022/01/28 01:07:52;;;;;;;23.60;17.15;;;23.50;77.60;;;;;;1922572;74;21598;-87
2022/01/28 01:10:24;;;;;;;25.72;16.32;;;23.60;77.10;;;;;;1930010;74;21040;-87
2022/01/28 01:12:55;;;;;;;24.65;15.95;;;23.70;76.60;;;;;;1936805;74;21250;-87
2022/01/28 01:15:33;;;;;;;29.50;16.25;;;23.70;76.00;;;;;;1932079;73;21051;-87
2022/01/28 01:18:08;;;;;;;26.93;18.23;;;23.90;76.00;;;;;;1912686;73;21149;-87
2022/01/28 01:20:49;;;;;;;23.00;16.62;;;23.90;75.80;;;;;;1936764;72;21616;-87
2022/01/28 01:25:45;;;;;;;27.20;16.80;;;24.00;75.00;;;;;;1938760;73;21062;-87
2022/01/28 01:28:12;;;;;;;25.92;16.73;;;24.10;74.60;;;;;;1942822;73;21076;-87
2022/01/28 01:30:45;;;;;;;25.45;16.45;;;24.20;74.40;;;;;;1932687;73;21522;-87
2022/01/28 01:33:19;;;;;;;27.22;18.48;;;24.20;74.30;;;;;;1931518;73;21685;-88
2022/01/28 01:35:50;;;;;;;23.00;15.55;;;24.30;74.10;;;;;;1933562;74;21206;-89
2022/01/28 01:38:25;;;;;;;26.73;16.90;;;24.30;74.10;;;;;;1926035;73;21137;-87
2022/01/28 01:40:57;;;;;;;36.90;17.23;;;24.40;73.80;;;;;;1941602;73;21101;-87
2022/01/28 01:46:09;;;;;;;36.00;17.23;;;24.50;73.70;;;;;;1929587;73;21100;-85
2022/01/28 01:53:33;;;;;;;28.12;18.55;;;24.70;73.10;;;;;;1924155;73;21177;-84
2022/01/28 01:56:05;;;;;;;33.00;19.98;;;24.70;73.20;;;;;;1933538;73;21201;-86
2022/01/28 01:58:36;;;;;;;33.40;18.92;;;24.80;73.50;;;;;;1935404;74;21628;-85
2022/01/28 02:01:07;;;;;;;28.45;19.12;;;24.80;73.40;;;;;;1902938;74;21720;-75
2022/01/28 02:03:38;;;;;;;28.15;17.85;;;24.90;73.40;;;;;;1930497;73;21173;-76
2022/01/28 02:06:11;;;;;;;22.75;15.28;;;24.90;73.30;;;;;;1929331;73;21146;-75
2022/01/28 02:08:41;;;;;;;23.35;14.83;;;24.90;73.20;;;;;;1936380;73;21607;-75
2022/01/28 02:11:12;;;;;;;20.30;13.28;;;25.00;73.00;;;;;;1932488;73;21555;-76
2022/01/28 02:13:45;;;;;;;21.97;13.85;;;25.00;72.80;;;;;;1935017;74;21629;-75
2022/01/28 02:16:17;;;;;;;23.57;14.43;;;25.00;72.70;;;;;;1933049;73;21551;-74
2022/01/28 02:18:48;;;;;;;23.00;14.25;;;25.10;72.70;;;;;;1911192;74;21093;-74
2022/01/28 02:21:19;;;;;;;20.68;14.73;;;25.10;72.60;;;;;;1927106;74;21686;-74
2022/01/28 02:23:56;;;;;;;22.35;14.20;;;25.20;72.60;;;;;;1913489;73;21550;-76
2022/01/28 02:26:23;;;;;;;22.10;13.70;;;25.20;72.50;;;;;;1937841;73;21634;-77
2022/01/28 02:28:56;;;;;;;20.02;14.43;;;25.20;73.30;;;;;;1936134;72;22406;-76
2022/01/28 02:31:27;;;;;;;21.12;14.07;;;25.30;72.50;;;;;;1937550;74;21065;-75
2022/01/28 02:33:59;;;;;;;34.65;15.10;;;25.30;73.70;;;;;;1937684;72;21686;-74
2022/01/28 02:36:30;;;;;;;21.87;14.15;;;25.40;72.60;;;;;;1938609;73;21656;-74
2022/01/28 02:39:02;;;;;;;18.95;12.70;;;25.40;72.60;;;;;;1930309;72;21078;-74
2022/01/28 02:41:37;;;;;;;19.35;12.90;;;25.50;71.90;;;;;;1941489;73;21098;-73
2022/01/28 02:46:49;;;;;;;20.80;13.53;;;25.50;71.80;;;;;;1944454;74;21206;-75
2022/01/28 02:49:11;;;;;;;19.75;13.40;;;25.60;71.90;;;;;;1938789;73;21175;-74
2022/01/28 02:51:43;;;;;;;25.88;14.38;;;25.60;71.80;;;;;;1937532;74;21113;-74
2022/01/28 02:54:16;;;;;;;19.45;13.93;;;25.70;71.80;;;;;;1929546;74;21208;-74
2022/01/28 02:56:53;;;;;;;21.02;13.83;;;25.70;71.50;;;;;;1940557;73;21184;-73
2022/01/28 02:59:21;;;;;;;22.93;14.38;;;25.70;71.40;;;;;;1936435;72;22346;-74
2022/01/28 03:01:52;;;;;;;28.50;13.85;;;25.80;71.20;;;;;;1933989;74;21183;-76
2022/01/28 03:06:55;;;;;;;20.32;13.48;;;25.90;71.20;;;;;;1939861;73;21174;-75
2022/01/28 03:09:46;;;;;;;19.02;13.45;;;25.90;71.00;;;;;;1924661;74;21139;-75
2022/01/28 03:12:12;;;;;;;26.68;14.07;;;26.00;70.20;;;;;;1944249;73;21097;-74
2022/01/28 03:14:47;;;;;;;22.48;12.95;;;26.00;70.10;;;;;;1937755;73;21610;-74
2022/01/28 03:17:25;;;;;;;32.85;16.27;;;26.10;69.60;;;;;;1934069;73;21540;-75
2022/01/28 03:20:06;;;;;;;16.80;12.73;;;26.20;69.90;;;;;;1934892;73;21156;-75
2022/01/28 03:22:10;;;;;;;17.70;11.90;;;26.20;69.30;;;;;;1921816;73;21240;-74
2022/01/28 03:24:42;;;;;;;19.02;12.07;;;26.30;68.90;;;;;;1931922;73;21598;-76
2022/01/28 03:27:20;;;;;;;19.52;13.05;;;26.40;69.10;;;;;;1931262;73;21229;-75
2022/01/28 03:29:44;;;;;;;21.17;11.50;;;26.40;69.00;;;;;;1937018;72;21151;-75
2022/01/28 03:32:15;;;;;;;15.55;11.03;;;26.50;68.40;;;;;;1931512;73;21125;-73
2022/01/28 03:34:46;;;;;;;17.57;10.60;;;26.60;67.10;;;;;;1921685;72;21174;-72
2022/01/28 03:37:19;;;;;;;14.53;10.43;;;26.70;66.70;;;;;;1916414;73;21120;-72
2022/01/28 03:39:49;;;;;;;18.37;10.85;;;26.70;66.40;;;;;;1934893;73;21646;-71
2022/01/28 03:42:20;;;;;;;17.67;10.82;;;26.80;67.20;;;;;;1937414;73;21090;-71
2022/01/28 03:44:51;;;;;;;18.57;10.80;;;26.80;66.10;;;;;;1932313;72;21138;-72
2022/01/28 03:47:21;;;;;;;13.93;10.38;;;26.90;66.20;;;;;;1944523;74;21617;-71
2022/01/28 03:49:52;;;;;;;21.60;11.10;;;27.00;66.40;;;;;;1930572;73;21630;-74
2022/01/28 03:52:23;;;;;;;18.42;11.00;;;27.10;65.50;;;;;;1941797;74;21132;-72
2022/01/28 03:54:54;;;;;;;19.17;11.38;;;27.20;65.10;;;;;;1925440;73;21145;-72
2022/01/28 03:57:25;;;;;;;16.85;10.35;;;27.40;65.30;;;;;;1929145;73;21221;-72
2022/01/28 03:59:55;;;;;;;16.80;10.38;;;27.50;63.40;;;;;;1931695;73;21127;-72
2022/01/28 04:02:30;;;;;;;16.00;9.53;;;27.60;63.40;;;;;;1897635;75;21193;-72
2022/01/28 04:12:39;;;;;;;14.93;9.88;;;27.90;61.00;;;;;;1939476;73;21158;-73
2022/01/28 04:15:20;;;;;;;18.45;9.95;;;28.00;61.30;;;;;;1948666;72;21155;-73
2022/01/28 04:17:38;;;;;;;17.27;9.60;;;28.10;61.80;;;;;;1934398;73;21135;-72
2022/01/28 04:20:09;;;;;;;16.35;9.28;;;28.20;61.40;;;;;;1938302;74;21148;-72
2022/01/28 04:22:40;;;;;;;16.02;9.43;;;28.20;60.60;;;;;;1924781;72;21510;-72
2022/01/28 04:25:11;;;;;;;14.53;8.38;;;28.30;60.90;;;;;;1919006;74;21637;-73
2022/01/28 04:27:42;;;;;;;17.00;9.10;;;28.40;61.00;;;;;;1933935;73;21096;-73
2022/01/28 04:30:13;;;;;;;18.48;9.38;;;28.60;60.80;;;;;;1942596;74;21112;-73
2022/01/28 04:32:46;;;;;;;15.98;9.45;;;28.60;59.50;;;;;;1898976;74;21132;-73
2022/01/28 04:35:16;;;;;;;13.43;8.20;;;28.70;59.30;;;;;;1932870;73;21085;-74
2022/01/28 04:40:24;;;;;;;13.20;8.15;;;28.90;57.80;;;;;;1925088;74;21055;-73
2022/01/28 04:43:06;;;;;;;11.88;8.00;;;28.90;57.80;;;;;;1925029;74;21120;-73
2022/01/28 04:53:15;;;;;;;15.03;7.65;;;29.30;57.20;;;;;;1929463;73;21060;-85
2022/01/28 05:28:29;;;;;;;14.33;8.55;;;30.30;53.50;;;;;;1900411;73;21097;-87
2022/01/28 05:31:00;;;;;;;12.75;7.60;;;30.40;53.20;;;;;;1902244;73;21092;-87
2022/01/28 05:33:30;;;;;;;12.68;8.13;;;30.50;52.90;;;;;;1848012;74;21171;-88
2022/01/28 05:36:01;;;;;;;14.58;8.10;;;30.50;52.80;;;;;;1903300;75;21143;-87
2022/01/28 05:38:32;;;;;;;13.43;8.23;;;30.60;52.90;;;;;;1940220;73;21123;-87
2022/01/28 05:41:02;;;;;;;12.60;8.40;;;30.60;53.10;;;;;;1892543;75;21113;-85
2022/01/28 05:43:33;;;;;;;11.90;8.45;;;30.60;52.50;;;;;;1881110;75;21088;-88
2022/01/28 05:46:04;;;;;;;13.93;8.83;;;30.70;52.70;;;;;;1936505;73;21112;-72
2022/01/28 05:48:36;;;;;;;14.43;8.70;;;30.70;51.90;;;;;;1898240;74;21645;-72
2022/01/28 05:51:06;;;;;;;10.53;8.18;;;30.70;52.80;;;;;;1939720;73;21116;-72
2022/01/28 05:53:37;;;;;;;14.78;8.83;;;30.70;52.60;;;;;;1924804;73;21147;-72
2022/01/28 05:56:08;;;;;;;16.93;9.60;;;30.80;52.80;;;;;;1933491;73;21605;-73
2022/01/28 05:58:39;;;;;;;15.03;9.23;;;30.80;54.80;;;;;;1932298;73;21369;-73
2022/01/28 06:01:10;;;;;;;18.62;10.10;;;30.90;53.60;;;;;;1932842;73;21108;-73
2022/01/28 06:03:42;;;;;;;18.12;10.32;;;31.10;53.50;;;;;;1897842;74;21946;-72
2022/01/28 06:06:18;;;;;;;16.82;10.68;;;31.10;53.00;;;;;;1940455;74;21137;-72
2022/01/28 06:08:46;;;;;;;15.65;9.65;;;31.10;52.20;;;;;;1901690;74;21162;-72
2022/01/28 06:11:18;;;;;;;18.05;10.30;;;31.10;51.70;;;;;;1921041;73;21139;-72
2022/01/28 06:13:48;;;;;;;17.20;9.75;;;31.20;52.10;;;;;;1906701;74;21549;-72
2022/01/28 06:16:20;;;;;;;13.70;9.80;;;31.20;51.40;;;;;;1938599;74;21137;-72
2022/01/28 06:18:51;;;;;;;13.93;9.93;;;31.20;51.90;;;;;;1951363;72;21032;-72
2022/01/28 06:21:22;;;;;;;18.57;10.18;;;31.20;52.10;;;;;;1948368;72;21195;-71
2022/01/28 06:23:53;;;;;;;14.50;9.93;;;31.20;52.40;;;;;;1904884;74;21163;-72
2022/01/28 06:26:24;;;;;;;16.17;9.98;;;31.30;51.70;;;;;;1951551;72;21148;-72
2022/01/28 06:28:55;;;;;;;16.17;9.90;;;31.30;52.30;;;;;;1943494;72;21619;-72
2022/01/28 06:31:26;;;;;;;14.25;9.50;;;31.40;52.70;;;;;;1940759;73;21193;-72
2022/01/28 06:33:57;;;;;;;22.22;11.88;;;31.40;52.50;;;;;;1940679;72;21052;-73
2022/01/28 06:36:28;;;;;;;17.50;10.82;;;31.30;51.60;;;;;;1954564;72;21109;-71
2022/01/28 06:38:59;;;;;;;15.25;10.48;;;31.40;51.40;;;;;;1951840;72;21150;-72
2022/01/28 06:41:30;;;;;;;15.60;10.82;;;31.50;51.60;;;;;;1963349;72;21097;-72
2022/01/28 06:44:01;;;;;;;14.90;9.38;;;31.50;51.20;;;;;;1941246;73;21593;-74
2022/01/28 06:46:32;;;;;;;16.93;9.45;;;31.60;51.70;;;;;;1957516;72;21180;-70
2022/01/28 06:49:03;;;;;;;14.87;9.93;;;31.70;50.90;;;;;;1939989;72;21283;-71
2022/01/28 06:51:34;;;;;;;12.82;9.25;;;31.70;51.20;;;;;;1942324;73;21127;-71
2022/01/28 06:54:05;;;;;;;15.35;9.18;;;31.80;51.60;;;;;;1939243;73;21151;-71
2022/01/28 06:56:36;;;;;;;14.03;9.95;;;31.80;50.60;;;;;;1943004;73;21607;-70
2022/01/28 06:59:07;;;;;;;16.30;10.75;;;31.80;49.50;;;;;;1945227;73;21119;-69
2022/01/28 07:01:38;;;;;;;20.08;13.45;;;31.70;50.10;;;;;;1946008;72;21059;-70
2022/01/28 07:04:09;;;;;;;20.57;10.65;;;31.70;51.30;;;;;;1956053;72;21165;-69
2022/01/28 07:06:40;;;;;;;12.13;8.98;;;31.70;50.60;;;;;;1953005;72;21148;-70
2022/01/28 07:09:10;;;;;;;18.35;10.13;;;31.80;50.90;;;;;;1945406;72;21648;-69
2022/01/28 07:11:43;;;;;;;15.75;9.95;;;31.80;49.70;;;;;;1951888;72;21579;-70
2022/01/28 07:14:16;;;;;;;14.13;9.78;;;31.90;49.70;;;;;;1903750;74;21815;-69
2022/01/28 07:16:47;;;;;;;15.58;9.43;;;31.90;50.00;;;;;;1879442;75;21068;-69
2022/01/28 07:19:17;;;;;;;12.18;9.48;;;31.90;50.40;;;;;;1942596;72;21409;-70
2022/01/28 07:21:48;;;;;;;18.90;11.18;;;31.90;49.00;;;;;;1947159;72;21107;-70
2022/01/28 07:24:19;;;;;;;13.72;9.65;;;31.90;49.80;;;;;;1943008;72;21205;-69
2022/01/28 07:26:49;;;;;;;15.23;9.60;;;31.80;49.10;;;;;;1944358;72;21120;-70
2022/01/28 07:29:22;;;;;;;13.70;9.75;;;31.80;49.50;;;;;;1945235;72;21115;-70
2022/01/28 07:31:52;;;;;;;15.90;10.18;;;31.80;49.00;;;;;;1943916;72;21052;-70
2022/01/28 07:34:24;;;;;;;14.38;10.00;;;31.80;49.80;;;;;;1953932;72;21123;-69
2022/01/28 07:36:55;;;;;;;14.43;9.73;;;31.70;49.00;;;;;;1956713;72;21185;-69
2022/01/28 07:39:27;;;;;;;15.00;9.88;;;31.80;49.30;;;;;;1949802;72;21123;-69
2022/01/28 07:41:58;;;;;;;11.93;9.25;;;31.80;48.90;;;;;;1947775;72;21159;-69
2022/01/28 07:44:29;;;;;;;15.68;10.18;;;31.90;48.20;;;;;;1932630;72;21095;-69
2022/01/28 07:46:59;;;;;;;12.85;8.85;;;31.90;47.30;;;;;;1945779;72;21032;-69
2022/01/28 07:49:30;;;;;;;21.52;16.02;;;31.90;47.40;;;;;;1948546;72;21508;-69
2022/01/28 07:52:01;;;;;;;14.10;10.82;;;31.90;48.20;;;;;;1962230;72;21587;-69
2022/01/28 07:54:32;;;;;;;13.15;9.75;;;31.80;48.10;;;;;;1955179;72;21092;-69
2022/01/28 07:57:03;;;;;;;12.95;9.48;;;31.80;48.30;;;;;;1971675;72;21256;-69
2022/01/28 07:59:34;;;;;;;14.40;9.60;;;31.80;48.10;;;;;;1947568;72;21160;-69
2022/01/28 08:02:05;;;;;;;15.05;10.03;;;31.80;48.20;;;;;;1953822;72;21583;-69
2022/01/28 08:04:38;;;;;;;14.25;9.55;;;31.90;48.20;;;;;;1942975;72;21147;-69
2022/01/28 08:07:08;;;;;;;16.25;10.95;;;32.00;48.50;;;;;;1949601;72;21713;-71
2022/01/28 08:09:39;;;;;;;13.60;9.38;;;32.00;48.60;;;;;;1948594;72;21237;-69
2022/01/28 08:12:10;;;;;;;12.58;9.05;;;32.00;49.20;;;;;;1902980;74;21045;-70
2022/01/28 08:14:41;;;;;;;12.58;9.53;;;32.00;48.40;;;;;;1940576;72;21170;-70
2022/01/28 08:17:12;;;;;;;13.55;9.20;;;32.00;48.30;;;;;;1943499;72;21213;-69
2022/01/28 08:19:42;;;;;;;15.18;9.78;;;32.00;48.30;;;;;;1925346;72;21900;-68
2022/01/28 08:22:13;;;;;;;12.03;9.73;;;31.90;48.60;;;;;;1947638;72;21563;-68
2022/01/28 08:24:44;;;;;;;15.60;10.63;;;31.90;48.30;;;;;;1942672;72;21184;-69
2022/01/28 08:27:15;;;;;;;17.40;10.93;;;31.90;49.00;;;;;;1937110;72;21223;-70
2022/01/28 08:29:46;;;;;;;14.30;9.50;;;31.80;48.80;;;;;;1944909;73;21053;-69
2022/01/28 08:32:16;;;;;;;15.23;10.00;;;31.80;49.10;;;;;;1945155;72;21567;-70
2022/01/28 08:34:47;;;;;;;11.08;8.68;;;31.80;48.80;;;;;;1941991;72;21096;-70
2022/01/28 08:37:17;;;;;;;14.00;9.38;;;31.80;48.80;;;;;;1914597;73;21154;-69
2022/01/28 08:39:49;;;;;;;18.67;10.32;;;31.70;48.70;;;;;;1941815;72;21113;-69
2022/01/28 08:42:19;;;;;;;15.08;9.58;;;31.70;49.30;;;;;;1946522;72;21603;-69
2022/01/28 08:44:50;;;;;;;14.73;10.13;;;31.70;49.20;;;;;;1930419;74;21087;-71
2022/01/28 08:47:22;;;;;;;17.37;10.05;;;31.60;49.20;;;;;;1944307;74;21182;-69
2022/01/28 08:49:52;;;;;;;14.80;9.33;;;31.60;49.80;;;;;;1944786;74;21152;-69
2022/01/28 08:52:24;;;;;;;14.63;9.60;;;31.60;49.80;;;;;;1928345;73;21248;-69
2022/01/28 08:54:54;;;;;;;14.28;9.55;;;31.60;50.00;;;;;;1919171;74;21073;-70
2022/01/28 08:57:26;;;;;;;19.70;9.88;;;31.60;50.20;;;;;;1898091;75;21561;-69
2022/01/28 08:59:58;;;;;;;13.90;9.43;;;31.50;50.20;;;;;;1938197;73;21644;-68
2022/01/28 09:02:29;;;;;;;12.90;10.40;;;31.50;50.10;;;;;;1927358;74;21108;-83
2022/01/28 09:05:00;;;;;;;21.73;10.98;;;31.40;50.30;;;;;;1932119;74;21116;-81
2022/01/28 09:07:33;;;;;;;16.67;10.88;;;31.40;50.50;;;;;;1931766;73;21149;-70
2022/01/28 09:10:17;;;;;;;17.00;9.85;;;31.50;50.60;;;;;;1931546;73;21167;-70
2022/01/28 09:12:59;;;;;;;13.10;9.78;;;31.50;50.00;;;;;;1932741;73;21218;-70
2022/01/28 09:15:15;;;;;;;13.30;9.28;;;31.50;49.60;;;;;;1857072;76;21767;-83
2022/01/28 09:17:47;;;;;;;13.32;9.50;;;31.50;49.50;;;;;;1873267;76;21143;-68
2022/01/28 09:20:18;;;;;;;15.15;9.43;;;31.50;49.90;;;;;;1892584;75;21118;-69
2022/01/28 09:22:49;;;;;;;15.00;10.00;;;31.40;49.70;;;;;;1864564;77;21064;-69
2022/01/28 09:25:19;;;;;;;17.10;11.08;;;31.40;49.70;;;;;;1890240;74;21539;-69
2022/01/28 09:27:50;;;;;;;25.52;16.65;;;31.40;49.50;;;;;;1907528;74;21073;-68
2022/01/28 09:30:21;;;;;;;13.68;10.40;;;31.40;50.00;;;;;;1893307;73;21178;-69
2022/01/28 09:32:52;;;;;;;18.40;10.38;;;31.40;50.00;;;;;;1945426;72;21064;-68
2022/01/28 09:35:23;;;;;;;15.23;9.48;;;31.40;50.10;;;;;;1932387;74;21599;-69
2022/01/28 09:37:55;;;;;;;14.58;10.68;;;31.40;49.90;;;;;;1914556;73;21212;-69
2022/01/28 09:40:25;;;;;;;14.58;10.05;;;31.40;49.90;;;;;;1891148;74;21068;-69
2022/01/28 09:42:59;;;;;;;13.72;10.72;;;31.30;50.30;;;;;;1935137;73;21581;-69
2022/01/28 09:45:29;;;;;;;15.60;10.32;;;31.20;50.30;;;;;;1929371;73;21096;-68
2022/01/28 09:48:01;;;;;;;17.60;11.12;;;31.20;50.60;;;;;;1937704;73;21537;-68
2022/01/28 09:50:33;;;;;;;13.58;9.60;;;31.20;50.30;;;;;;1939082;74;21046;-67
2022/01/28 09:53:04;;;;;;;12.63;9.60;;;31.20;50.60;;;;;;1937985;73;21123;-68
2022/01/28 09:55:35;;;;;;;21.02;11.30;;;31.10;50.30;;;;;;1944753;73;21156;-69
2022/01/28 09:58:06;;;;;;;15.98;11.15;;;31.10;50.70;;;;;;1938132;73;21204;-70
2022/01/28 10:00:37;;;;;;;16.20;10.55;;;31.00;50.80;;;;;;1906447;74;21677;-68
2022/01/28 10:03:09;;;;;;;14.47;10.10;;;31.00;50.70;;;;;;1902896;74;21127;-69
2022/01/28 10:05:43;;;;;;;13.60;10.40;;;30.90;50.50;;;;;;1901232;74;21233;-69
2022/01/28 10:08:16;;;;;;;14.90;10.85;;;30.90;50.70;;;;;;1906654;75;21874;-68
2022/01/28 10:10:49;;;;;;;17.45;10.08;;;30.90;50.80;;;;;;1934321;74;21147;-68
2022/01/28 10:13:26;;;;;;;14.65;10.05;;;30.80;50.40;;;;;;1907815;73;21248;-69
2022/01/28 10:15:56;;;;;;;16.57;10.58;;;30.80;51.00;;;;;;1931284;73;21586;-70
2022/01/28 10:18:30;;;;;;;16.82;9.53;;;30.80;51.10;;;;;;1933261;73;21083;-70
2022/01/28 10:21:01;;;;;;;11.68;9.13;;;30.80;51.50;;;;;;1938164;72;21586;-69
2022/01/28 10:23:32;;;;;;;16.12;9.48;;;30.70;51.80;;;;;;1932661;73;21763;-70
2022/01/28 10:26:03;;;;;;;11.63;9.40;;;30.70;51.90;;;;;;1935628;73;21232;-84
2022/01/28 10:28:33;;;;;;;15.83;9.65;;;30.60;52.10;;;;;;1934884;73;21245;-84
2022/01/28 10:31:05;;;;;;;15.30;9.95;;;30.60;52.00;;;;;;1925383;74;21118;-84
2022/01/28 10:33:36;;;;;;;15.48;9.70;;;30.50;52.20;;;;;;1937642;74;21130;-86
2022/01/28 10:36:08;;;;;;;18.57;9.80;;;30.50;53.20;;;;;;1929784;73;21123;-85
2022/01/28 10:38:43;;;;;;;14.93;9.60;;;30.40;52.30;;;;;;1934368;73;21123;-83
2022/01/28 10:41:16;;;;;;;15.13;10.13;;;30.40;52.50;;;;;;1933019;73;21144;-84
2022/01/28 10:43:50;;;;;;;15.28;10.93;;;30.40;52.80;;;;;;1929801;74;21079;-85
2022/01/28 10:46:26;;;;;;;19.67;11.50;;;30.40;53.10;;;;;;1937005;73;21108;-84
2022/01/28 10:49:01;;;;;;;18.55;11.08;;;30.30;53.20;;;;;;1902096;74;21068;-84
2022/01/28 10:51:34;;;;;;;16.82;10.85;;;30.20;53.30;;;;;;1941693;74;21140;-84
2022/01/28 10:54:09;;;;;;;17.05;10.93;;;30.20;53.50;;;;;;1938759;73;21085;-84
2022/01/28 10:56:42;;;;;;;18.37;11.73;;;30.20;53.60;;;;;;1935434;73;21548;-85
2022/01/28 10:59:17;;;;;;;15.53;11.22;;;30.20;53.60;;;;;;1920641;74;21250;-85
2022/01/28 11:01:49;;;;;;;15.98;11.78;;;30.10;53.60;;;;;;1936300;74;21132;-84
2022/01/28 11:04:21;;;;;;;20.25;12.40;;;30.10;53.70;;;;;;1940877;74;21127;-84
2022/01/28 11:06:56;;;;;;;18.95;12.93;;;30.10;53.90;;;;;;1929730;73;21247;-84
2022/01/28 11:09:28;;;;;;;16.97;12.40;;;30.00;54.00;;;;;;1918064;74;21670;-84
2022/01/28 11:12:00;;;;;;;18.20;12.15;;;30.00;54.20;;;;;;1922044;74;21084;-85
2022/01/28 11:14:32;;;;;;;17.30;12.50;;;29.90;54.30;;;;;;1914185;74;21524;-85
2022/01/28 11:17:05;;;;;;;18.60;12.40;;;29.90;54.40;;;;;;1922474;74;21115;-84
2022/01/28 11:19:38;;;;;;;19.62;12.33;;;29.90;54.60;;;;;;1910264;75;21617;-84
2022/01/28 11:22:11;;;;;;;19.00;14.10;;;29.80;54.60;;;;;;1910177;75;21060;-85
2022/01/28 11:24:45;;;;;;;19.23;13.35;;;29.80;54.70;;;;;;1909019;75;21147;-84
2022/01/28 11:27:18;;;;;;;19.77;14.55;;;29.80;54.60;;;;;;1923971;74;21134;-85
2022/01/28 11:29:49;;;;;;;27.52;16.52;;;29.70;54.70;;;;;;1936193;74;21147;-85
2022/01/28 11:32:20;;;;;;;21.02;15.45;;;29.70;54.70;;;;;;1924640;74;21068;-85
2022/01/28 11:34:57;;;;;;;20.68;14.03;;;29.70;54.90;;;;;;1910034;75;21574;-85
2022/01/28 11:37:30;;;;;;;20.05;13.95;;;29.70;54.90;;;;;;1928107;74;21092;-85
2022/01/28 11:40:03;;;;;;;21.45;14.58;;;29.60;55.00;;;;;;1892449;75;21302;-85
2022/01/28 11:42:34;;;;;;;21.65;14.60;;;29.60;55.10;;;;;;1935086;74;21217;-86
2022/01/28 11:45:09;;;;;;;21.17;14.33;;;29.60;55.30;;;;;;1928804;74;21125;-85
2022/01/28 11:47:42;;;;;;;22.50;14.55;;;29.60;56.20;;;;;;1923200;74;21443;-85
2022/01/28 11:50:19;;;;;;;27.32;15.60;;;29.60;56.40;;;;;;1918650;74;21112;-85
2022/01/28 11:52:52;;;;;;;22.13;14.90;;;29.60;55.90;;;;;;1931069;74;21531;-86
2022/01/28 11:55:25;;;;;;;23.05;15.50;;;29.50;55.90;;;;;;1921964;74;21496;-84
2022/01/28 11:57:58;;;;;;;26.50;15.23;;;29.50;56.00;;;;;;1934955;74;21617;-84
2022/01/28 12:00:31;;;;;;;25.60;15.08;;;29.50;56.10;;;;;;1911787;74;21576;-84
2022/01/28 12:03:07;;;;;;;24.07;15.20;;;29.50;56.40;;;;;;1916697;74;21619;-85
2022/01/28 12:05:38;;;;;;;29.25;15.85;;;29.40;56.20;;;;;;1928688;74;21702;-83
2022/01/28 12:08:10;;;;;;;22.62;15.43;;;29.40;56.30;;;;;;1910837;74;21109;-84
2022/01/28 12:10:44;;;;;;;29.90;17.10;;;29.40;56.40;;;;;;1909976;74;21525;-83
2022/01/28 12:13:21;;;;;;;28.50;18.32;;;29.30;56.60;;;;;;1917773;74;21149;-85
2022/01/28 12:16:00;;;;;;;31.15;19.55;;;29.30;56.70;;;;;;1911988;74;21663;-85
2022/01/28 12:18:29;;;;;;;29.77;19.55;;;29.30;56.80;;;;;;1915418;73;21182;-85
2022/01/28 12:21:01;;;;;;;26.75;18.23;;;29.30;56.90;;;;;;1915382;74;21851;-85
2022/01/28 12:23:31;;;;;;;31.12;19.32;;;29.30;57.00;;;;;;1913820;74;21118;-84
2022/01/28 12:26:02;;;;;;;31.07;20.70;;;29.30;57.20;;;;;;1916732;74;21181;-84
2022/01/28 12:28:32;;;;;;;31.73;20.12;;;29.30;57.40;;;;;;1913767;73;21066;-85
2022/01/28 12:31:06;;;;;;;34.20;21.90;;;29.20;57.20;;;;;;1910201;74;21092;-82
2022/01/28 12:33:39;;;;;;;39.35;25.15;;;29.20;57.60;;;;;;1919527;73;21657;-83
2022/01/28 12:36:11;;;;;;;29.80;21.37;;;29.10;57.70;;;;;;1917022;73;21174;-83
2022/01/28 12:38:54;;;;;;;28.50;19.92;;;29.10;57.90;;;;;;1923904;74;21130;-82
2022/01/28 12:41:17;;;;;;;32.38;21.27;;;29.10;58.00;;;;;;1914597;74;21617;-85
2022/01/28 12:43:48;;;;;;;35.48;21.40;;;29.10;58.10;;;;;;1922548;74;21096;-84
2022/01/28 12:46:23;;;;;;;35.48;21.40;;;29.10;58.20;;;;;;1912349;74;21621;-85
2022/01/28 12:48:54;;;;;;;29.77;21.77;;;29.10;58.20;;;;;;1933247;74;21566;-83
2022/01/28 12:51:26;;;;;;;29.10;20.85;;;29.00;58.30;;;;;;1916705;74;21101;-85
2022/01/28 12:53:57;;;;;;;32.15;20.15;;;29.00;58.40;;;;;;1917100;74;21143;-83
2022/01/28 12:56:30;;;;;;;28.32;19.80;;;29.00;58.30;;;;;;1919093;74;21097;-85
2022/01/28 12:59:02;;;;;;;29.05;19.30;;;29.00;58.30;;;;;;1931818;74;21186;-84
2022/01/28 13:01:56;;;;;;;30.05;21.00;;;28.90;59.00;;;;;;1907278;74;21237;-84
2022/01/28 13:04:48;;;;;;;38.42;20.15;;;28.90;58.20;;;;;;1902779;74;21634;-84
2022/01/28 13:08:24;;;;;;;34.23;19.40;;;28.90;58.20;;;;;;1935358;74;21570;-84
2022/01/28 13:09:33;;;;;;;29.00;19.17;;;28.90;58.00;;;;;;1932515;73;21216;-85
2022/01/28 13:12:07;;;;;;;26.48;18.73;;;28.90;57.90;;;;;;1863324;75;21237;-84
2022/01/28 13:14:40;;;;;;;30.30;18.60;;;28.90;57.90;;;;;;1930714;73;21127;-85
2022/01/28 13:17:10;;;;;;;23.47;17.30;;;28.80;57.80;;;;;;1933973;74;21107;-86
2022/01/28 13:19:41;;;;;;;27.10;17.10;;;28.80;57.60;;;;;;1915171;74;21127;-85
2022/01/28 13:22:12;;;;;;;27.67;18.00;;;28.80;57.50;;;;;;1925684;74;21146;-85
2022/01/28 13:24:43;;;;;;;29.45;17.90;;;28.80;57.60;;;;;;1920771;74;21656;-86
2022/01/28 13:27:14;;;;;;;34.20;18.52;;;28.80;57.60;;;;;;1917789;74;21111;-84
2022/01/28 13:29:47;;;;;;;30.65;17.87;;;28.80;57.60;;;;;;1896958;74;21133;-84
2022/01/28 13:32:23;;;;;;;27.58;18.17;;;28.80;57.80;;;;;;1891605;73;21290;-84
2022/01/28 13:34:56;;;;;;;27.77;19.67;;;28.80;57.90;;;;;;1922697;73;21202;-83
2022/01/28 13:37:31;;;;;;;32.78;18.95;;;28.80;58.10;;;;;;1922424;74;21135;-84
2022/01/28 13:40:03;;;;;;;31.10;19.30;;;28.70;58.20;;;;;;1908133;74;21073;-84
2022/01/28 13:42:34;;;;;;;27.87;18.52;;;28.70;58.40;;;;;;1920134;73;21096;-85
2022/01/28 13:45:07;;;;;;;31.25;19.57;;;28.70;58.40;;;;;;1910725;74;21191;-84
2022/01/28 13:47:47;;;;;;;27.13;18.42;;;28.70;58.60;;;;;;1913274;73;21141;-85
2022/01/28 13:50:20;;;;;;;31.93;19.25;;;28.70;58.70;;;;;;1914188;73;21165;-84
2022/01/28 13:52:58;;;;;;;27.80;19.00;;;28.60;58.70;;;;;;1908324;74;21096;-85
2022/01/28 13:55:25;;;;;;;29.57;19.23;;;28.60;58.90;;;;;;1916337;73;21269;-84
2022/01/28 13:58:03;;;;;;;28.73;18.73;;;28.60;59.10;;;;;;1903367;74;21222;-83
2022/01/28 14:00:34;;;;;;;28.00;17.82;;;28.60;59.10;;;;;;1917355;74;21446;-85
2022/01/28 14:03:05;;;;;;;33.15;19.70;;;28.60;59.30;;;;;;1914850;74;21101;-86
2022/01/28 14:05:48;;;;;;;28.45;18.60;;;28.50;59.30;;;;;;1923569;74;21216;-84
2022/01/28 14:08:15;;;;;;;26.82;18.07;;;28.50;59.40;;;;;;1898649;74;21573;-83
2022/01/28 14:10:46;;;;;;;26.57;19.12;;;28.50;59.50;;;;;;1909619;74;21547;-84
2022/01/28 14:13:22;;;;;;;25.08;19.12;;;28.50;59.70;;;;;;1914111;74;21146;-85
2022/01/28 14:16:12;;;;;;;26.68;18.67;;;28.50;59.90;;;;;;1923198;74;21173;-83
2022/01/28 14:18:24;;;;;;;29.90;19.98;;;28.40;59.90;;;;;;1927813;74;21606;-84
2022/01/28 14:20:57;;;;;;;30.70;20.10;;;28.40;60.00;;;;;;1933945;74;21123;-83
2022/01/28 14:23:30;;;;;;;28.25;19.90;;;28.40;60.30;;;;;;1936650;74;22296;-85